Saint Cloud, MN

9:56 AM CDT on April 19, 2015 (GMT -0500)
Southwest St Cloud | | Change Station
CLOSE
Current Station
Personal Weather Station
Location: St Cloud, MN
Elevation: 1080 ft
Nearby Weather Stations

Elev 1080 ft 45.54 °N, 94.19 °W | Updated 9 seconds ago

Overcast
Overcast
50.9 °F
Feels Like 50.9 °F
N
2.1
Wind Variable Wind from SSW
Gusts 2.5 mph

Today
High -- | Low -- °F
--% Chance of Precip.
Yesterday
High -- | Low -- °F
Precip. -- in
6:24 AM 8:07 PM
New Moon, 1% visible
Pressure 29.64 in
Visibility 2.0 miles
Clouds Overcast 600 ft
Dew Point 42 °F
Humidity 70%
Rainfall 0.17 in
Snow Depth Not available.
UV 1 out of 12
Pollen 2.50 out of 12
Air Quality Not available.
Flu Activity Local Activity
SPECI KSTC 191446Z 16009KT 2SM -RA BR OVC006 09/09 A2964

More Conditions Fewer Conditions

Pressure 29.64 in
Visibility 2.0 miles
Clouds Overcast 600 ft
Dew Point 42 °F
Humidity 70%
Rainfall 0.17 in
Snow Depth Not available.
UV 1 out of 12
Pollen 2.50 out of 12
Air Quality Not available.
Flu Activity Local Activity
SPECI KSTC 191446Z 16009KT 2SM -RA BR OVC006 09/09 A2964

More Conditions Fewer Conditions

10-Day Weather Forecast

Almanac

Astronomy

Apr. 19, 2015 Rise Set
Actual Time
Civil Twilight
Nautical Twilight
Astronomical Twilight
Moon
Length of Visible Light
Length of Day
Tomorrow will be .
, % of the Moon is Illuminated

Today's Extremes

State Highs State Lows

Community

WunderPhotos

Upload Photos

1,814,826 photos uploaded!

WunderBlogs® & News

Nearby

Air Quality

  Air Quality AQ Index Pollutant
Not available.

Snow Depth

Station Depth Elevation

Earthquake Activity

City Distance Mag. Time & Date
Minimum magnitude displayed is 2.5.

Coastal Water Temperatures

Place Temperature

Stations

Nearby Weather Stations

Station Location Temp. Windchill Dew Point Humidity Wind Precip. Elev Updated Type